Latest Weather Observations for Bunbury

IDW60801

Issued at 8:02 am WST Friday 27 February 2015 (issued every 30 minutes, with the page automatically refreshed every 10 minutes)

About weather observations | Map of weather stations | Latest weather observations for WA | Other Formats
Station Details ID: 009965 Name: BUNBURY Lat: -33.36 Lon: 115.64 Height: 5.2 m
Data from the previous 72 hours. | See also: Recent months at Bunbury
Date/Time
WST
Temp
°C
App
Temp
°C
Dew
Point
Rel
Hum
%
Delta-T
°C
Wind Press
QNH
hPa
Press
MSL
hPa
Rain
since 9 am
mm
Dir
 
Spd
km/h
Gust
km/h
Spd
kts
Gust
kts
27/08:00am 20.1 18.6 16.3 79 2.3 S 19 26 10 14 1009.1 1009.1 0.8
27/07:30am 19.8 18.3 16.3 80 2.1 S 19 28 10 15 1009.0 1009.0 0.8
27/07:00am 19.4 17.8 16.4 83 1.8 S 20 30 11 16 1008.5 1008.5 0.8
27/06:30am 19.7 18.3 16.9 84 1.7 S 20 33 11 18 1008.0 1008.0 0.8
27/06:00am 20.2 19.1 17.2 83 1.8 SSW 19 28 10 15 1007.7 1007.7 0.8
27/05:30am 20.3 20.3 17.1 82 1.9 SSW 13 20 7 11 1007.0 1007.0 0.8
27/05:00am 20.2 19.6 17.6 85 1.6 SSW 17 24 9 13 1006.8 1006.8 0.8
27/04:30am 20.2 20.5 17.8 86 1.5 S 13 24 7 13 1006.4 1006.4 0.8
27/04:00am 20.1 20.0 17.9 87 1.4 S 15 22 8 12 1005.9 1005.9 0.8
27/03:30am 20.5 19.8 18.3 87 1.4 S 19 26 10 14 1005.8 1005.8 0.8
27/03:00am 20.6 19.9 18.7 89 1.2 S 20 28 11 15 1005.8 1005.8 0.8
27/02:30am 20.7 20.4 19.2 91 0.9 SSW 19 26 10 14 1005.7 1005.7 0.8
27/02:00am 20.9 21.4 19.2 90 1.1 SSW 15 20 8 11 1005.5 1005.5 0.8
27/01:30am 21.1 22.0 19.2 89 1.2 SSW 13 22 7 12 1005.5 1005.5 0.8
27/01:00am 21.1 22.8 19.4 90 1.1 SW 9 15 5 8 1005.6 1005.6 0.8
27/12:30am 21.3 23.0 19.4 89 1.2 SSW 9 13 5 7 1005.6 1005.6 0.8
27/12:00am 21.4 23.5 19.3 88 1.3 SSW 7 11 4 6 1005.6 1005.6 0.8
 
Date/Time
WST
Temp
°C
App
Temp
°C
Dew
Point
Rel
Hum
%
Delta-T
°C
Wind Press
QNH
hPa
Press
MSL
hPa
Rain
since 9 am
mm
Dir
 
Spd
km/h
Gust
km/h
Spd
kts
Gust
kts
26/11:30pm 21.6 23.3 19.3 87 1.5 SSW 9 13 5 7 1005.7 1005.7 0.8
26/11:00pm 21.9 23.2 19.3 85 1.7 S 11 17 6 9 1005.6 1005.6 0.8
26/10:30pm 22.4 23.4 19.4 83 1.9 SSW 13 19 7 10 1006.1 1006.1 0.8
26/10:00pm 22.9 24.3 19.5 81 2.2 S 11 15 6 8 1006.1 1006.1 0.8
26/09:30pm 23.0 24.3 19.4 80 2.3 S 11 15 6 8 1006.0 1006.0 0.8
26/09:00pm 23.3 24.6 19.2 78 2.6 S 11 17 6 9 1006.1 1006.1 0.8
26/08:30pm 23.6 24.6 19.5 78 2.6 S 13 22 7 12 1005.9 1005.9 0.8
26/08:00pm 23.9 24.2 19.6 77 2.8 S 17 24 9 13 1005.5 1005.5 0.8
26/07:30pm 24.6 25.7 20.5 78 2.7 SSW 15 22 8 12 1005.0 1005.0 0.8
26/07:00pm 25.3 26.7 21.0 77 2.8 S 15 22 8 12 1004.6 1004.6 0.8
26/06:30pm 26.5 27.7 21.5 74 3.3 S 17 22 9 12 1004.4 1004.4 0.8
26/06:00pm 27.1 30.6 22.1 74 3.4 SSW 7 11 4 6 1004.2 1004.2 0.8
26/05:30pm 26.4 29.2 21.6 75 3.2 WSW 9 13 5 7 1004.5 1004.5 0.8
26/05:00pm 27.0 28.9 21.3 71 3.8 WSW 13 19 7 10 1004.4 1004.4 0.8
26/04:30pm 27.7 29.6 20.5 65 4.7 W 11 17 6 9 1004.3 1004.3 0.8
26/04:00pm 27.8 29.0 20.6 65 4.8 W 15 22 8 12 1004.3 1004.3 0.8
26/03:30pm 26.0 26.6 20.3 71 3.7 WSW 17 24 9 13 1004.5 1004.5 0.8
26/03:00pm 27.3 28.1 20.6 67 4.4 W 17 22 9 12 1004.4 1004.4 0.8
26/02:30pm 27.9 29.3 21.0 66 4.6 WSW 15 20 8 11 1004.7 1004.7 0.8
26/02:00pm 29.5 30.8 20.9 60 5.7 W 15 20 8 11 1004.8 1004.8 0.8
26/01:30pm 30.1 31.2 21.2 59 6.0 WSW 17 22 9 12 1004.9 1004.9 0.8
26/01:00pm 31.4 33.8 20.0 50 7.5 SSW 7 11 4 6 1005.1 1005.1 0.8
26/12:30pm 30.4 33.2 20.9 57 6.3 SSW 7 11 4 6 1005.5 1005.5 0.8
26/12:00pm 29.3 32.6 22.5 67 4.6 SSW 9 13 5 7 1006.1 1006.1 0.8
26/11:30am 28.0 32.0 22.7 73 3.6 SE 6 7 3 4 1006.6 1006.6 0.8
26/11:00am 28.6 30.1 19.8 59 5.8 SE 11 15 6 8 1007.0 1007.0 0.0
26/10:30am 28.2 30.8 20.0 61 5.4 SE 6 9 3 5 1007.7 1007.7 0.0
26/10:00am 26.7 28.4 21.0 71 3.8 SE 13 17 7 9 1007.4 1007.4 0.0
26/09:30am 25.2 27.4 21.1 78 2.7 SSE 11 17 6 9 1007.7 1007.7 0.0
26/09:00am 23.4 25.0 20.7 85 1.8 SE 13 19 7 10 1007.7 1007.7 5.0
26/08:30am 22.7 24.5 20.4 87 1.5 S 11 17 6 9 1008.1 1008.1 5.0
26/08:00am 21.9 24.6 20.7 93 0.8 S 7 11 4 6 1007.9 1007.9 5.0
26/07:30am 21.5 24.3 20.5 94 0.6 ESE 6 6 3 3 1007.8 1007.8 5.0
26/07:00am 20.6 23.1 20.3 98 0.2 ESE 7 9 4 5 1007.4 1007.4 5.0
26/06:30am 20.8 23.0 20.3 97 0.3 ESE 9 13 5 7 1007.2 1007.2 5.0
26/06:00am 21.1 23.3 19.7 92 0.9 ESE 7 11 4 6 1007.5 1007.5 5.0
26/05:30am 21.0 24.2 20.5 97 0.3 SSE 4 9 2 5 1007.8 1007.8 4.6
26/05:00am 20.9 22.4 20.6 98 0.2 E 13 19 7 10 1006.4 1006.4 4.4
26/04:30am 21.2 24.8 20.5 96 0.5 SSW 2 4 1 2 1007.2 1007.2 4.2
26/04:00am 21.2 24.2 20.9 98 0.2 SW 6 7 3 4 1006.8 1006.8 4.2
26/03:30am 21.5 23.8 20.7 95 0.5 S 9 13 5 7 1006.2 1006.2 4.2
26/03:15am 21.7 24.0 21.4 98 0.2 E 11 20 6 11 1005.3 1005.3 4.2
26/03:00am 21.9 25.0 21.1 95 0.5 NNE 6 7 3 4 1007.3 1007.3 3.0
26/02:30am 22.4 24.6 20.3 88 1.4 SSE 9 17 5 9 1006.4 1006.4 2.8
26/02:00am 23.1 25.6 20.2 84 1.9 ESE 7 13 4 7 1006.6 1006.6 1.2
26/01:30am 25.3 27.5 19.2 69 3.9 ESE 6 11 3 6 1007.0 1007.0 0.0
26/01:00am 25.0 25.3 19.6 72 3.5 ESE 17 24 9 13 1006.1 1006.1 0.0
26/12:30am 25.1 27.3 18.3 66 4.3 SSE 4 7 2 4 1007.3 1007.3 0.0
26/12:00am 25.3 26.5 18.2 64 4.5 ESE 9 13 5 7 1007.2 1007.2 0.0
 
Date/Time
WST
Temp
°C
App
Temp
°C
Dew
Point
Rel
Hum
%
Delta-T
°C
Wind Press
QNH
hPa
Press
MSL
hPa
Rain
since 9 am
mm
Dir
 
Spd
km/h
Gust
km/h
Spd
kts
Gust
kts
25/11:30pm 25.3 26.8 17.5 62 4.9 SE 6 7 3 4 1007.5 1007.5 0.0
25/11:00pm 25.1 26.1 17.8 64 4.6 ESE 9 13 5 7 1007.7 1007.7 0.0
25/10:30pm 25.1 26.5 17.8 64 4.6 SSE 7 11 4 6 1007.6 1007.6 0.0
25/10:00pm 25.2 25.4 17.7 63 4.7 SSE 13 17 7 9 1007.5 1007.5 0.0
25/09:30pm 25.0 25.1 17.5 63 4.7 S 13 17 7 9 1007.5 1007.5 0.0
25/09:00pm 25.1 25.5 18.1 65 4.4 S 13 17 7 9 1007.3 1007.3 0.0
25/08:30pm 27.2 26.8 17.1 54 6.3 SSE 15 20 8 11 1007.2 1007.2 0.0
25/08:00pm 27.5 27.5 17.1 53 6.5 SSE 13 17 7 9 1007.1 1007.1 0.0
25/07:30pm 28.0 27.5 16.9 51 6.9 SSE 15 20 8 11 1006.6 1006.6 0.0
25/07:00pm 28.9 28.4 16.8 48 7.6 S 15 30 8 16 1006.3 1006.3 0.0
25/06:30pm 30.1 28.7 16.9 45 8.3 S 20 28 11 15 1006.1 1006.1 0.0
25/06:00pm 31.8 30.4 16.9 40 9.5 SSW 20 28 11 15 1005.9 1005.9 0.0
25/05:30pm 31.6 33.1 18.9 47 8.3 SW 9 15 5 8 1005.8 1005.8 0.0
25/05:00pm 31.2 31.6 18.2 46 8.4 SW 13 22 7 12 1005.9 1005.9 0.0
25/04:30pm 30.0 29.1 17.8 48 7.8 SW 19 28 10 15 1006.2 1006.2 0.0
25/04:00pm 33.3 32.7 16.6 36 10.6 WSW 15 20 8 11 1006.1 1006.1 0.0
25/03:30pm 35.6 35.8 16.8 32 12.0 SW 11 15 6 8 1006.0 1006.0 0.0
25/03:00pm 35.4 35.2 16.7 33 12.0 SSW 13 24 7 13 1006.1 1006.1 0.0
25/02:30pm 35.6 36.2 16.8 32 12.0 SSW 9 15 5 8 1006.5 1006.5 0.0
25/02:00pm 35.0 35.0 16.3 32 11.9 SSW 11 19 6 10 1006.7 1006.7 0.0
25/01:30pm 34.5 35.7 16.8 34 11.3 SSE 6 13 3 7 1007.2 1007.2 0.0
25/01:00pm 32.8 33.7 16.6 38 10.3 S 7 15 4 8 1007.5 1007.5 0.0
25/12:30pm 32.2 33.2 16.9 40 9.7 SSW 7 15 4 8 1007.8 1007.8 0.0
25/12:00pm 31.6 32.1 17.5 43 9.0 S 11 17 6 9 1008.2 1008.2 0.0
25/11:30am 29.0 28.8 17.5 49 7.3 S 15 19 8 10 1008.7 1008.7 0.0
25/11:00am 27.5 28.1 17.7 55 6.2 S 11 17 6 9 1009.2 1009.2 0.0
25/10:30am 27.7 28.2 17.5 53 6.4 SSE 11 17 6 9 1009.2 1009.2 0.0
25/10:00am 27.3 27.1 17.5 55 6.2 SE 15 22 8 12 1009.7 1009.7 0.0
25/09:30am 26.5 25.5 17.6 58 5.6 SE 19 24 10 13 1009.8 1009.8 0.0
25/09:00am 24.7 23.9 17.9 66 4.3 SE 19 26 10 14 1010.0 1010.0 0.0
25/08:30am 22.3 21.2 17.4 74 3.0 SE 19 28 10 15 1010.0 1010.0 0.0
25/08:00am 22.8 22.3 17.7 73 3.2 SE 17 24 9 13 1009.5 1009.5 0.0
25/07:30am 21.3 20.3 17.5 79 2.3 SE 19 30 10 16 1009.5 1009.5 0.0
25/07:00am 20.2 19.5 17.4 84 1.7 SSE 17 24 9 13 1009.3 1009.3 0.0
25/06:30am 19.5 19.3 17.5 88 1.2 SSE 15 20 8 11 1008.8 1008.8 0.0
25/06:00am 19.4 19.2 17.5 89 1.2 S 15 24 8 13 1008.5 1008.5 0.0
25/05:30am 19.4 19.2 17.5 89 1.2 S 15 24 8 13 1008.2 1008.2 0.0
25/05:00am 19.6 19.6 17.2 86 1.5 S 13 17 7 9 1007.8 1007.8 0.0
25/04:30am 19.7 20.1 17.3 86 1.5 S 11 17 6 9 1007.3 1007.3 0.0
25/04:00am 19.9 20.3 17.3 85 1.6 S 11 15 6 8 1007.1 1007.1 0.0
25/03:30am 20.4 20.7 17.8 85 1.6 SW 13 24 7 13 1008.2 1008.2 0.0
25/03:00am 19.5 20.6 16.5 83 1.8 SE 6 7 3 4 1007.4 1007.4 0.0
25/02:30am 19.8 20.5 17.0 84 1.7 ESE 9 17 5 9 1007.2 1007.2 0.0
25/02:00am 20.3 20.0 17.3 83 1.8 SSE 15 22 8 12 1007.9 1007.9 0.0
25/01:30am 20.8 20.7 17.0 79 2.3 SSW 13 20 7 11 1008.7 1008.7 0.0
25/01:00am 21.1 20.9 16.7 76 2.7 SSW 13 19 7 10 1008.6 1008.6 0.0
25/12:30am 21.1 21.6 16.5 75 2.8 SSW 9 11 5 6 1008.0 1008.0 0.0
25/12:00am 22.1 22.4 15.9 68 3.7 SSE 9 15 5 8 1007.9 1007.9 0.0
 
Date/Time
WST
Temp
°C
App
Temp
°C
Dew
Point
Rel
Hum
%
Delta-T
°C
Wind Press
QNH
hPa
Press
MSL
hPa
Rain
since 9 am
mm
Dir
 
Spd
km/h
Gust
km/h
Spd
kts
Gust
kts
24/11:30pm 22.7 21.8 15.8 65 4.2 S 15 22 8 12 1007.4 1007.4 0.0
24/11:00pm 23.6 23.6 15.1 59 5.1 S 9 11 5 6 1007.5 1007.5 0.0
24/10:30pm 24.4 24.1 14.5 54 5.9 S 9 17 5 9 1007.8 1007.8 0.0
24/10:00pm 25.2 24.6 14.6 51 6.3 S 11 17 6 9 1007.9 1007.9 0.0
24/09:30pm 25.4 25.2 14.8 52 6.3 S 9 13 5 7 1008.0 1008.0 0.0
24/09:00pm 24.5 25.7 16.0 59 5.2 SSW 4 6 2 3 1008.2 1008.2 0.0
24/08:30pm 23.8 26.1 16.8 65 4.3 CALM 0 4 0 2 1008.0 1008.0 0.0
24/08:00pm 24.3 27.6 19.1 73 3.3 CALM 0 0 0 0 1007.5 1007.5 0.0
24/07:30pm 24.8 27.6 18.0 66 4.3 CALM 0 2 0 1 1007.4 1007.4 0.0
24/07:00pm 25.6 27.2 17.0 59 5.3 N 4 6 2 3 1007.1 1007.1 0.0
24/06:30pm 27.2 28.8 16.8 53 6.5 WNW 4 7 2 4 1006.8 1006.8 0.0
24/06:00pm 28.4 29.1 15.7 46 7.8 W 6 9 3 5 1006.8 1006.8 0.0
24/05:30pm 29.0 28.2 14.0 39 9.0 WSW 11 17 6 9 1006.5 1006.5 0.0
24/05:00pm 29.6 29.1 15.0 41 8.9 SW 11 15 6 8 1006.5 1006.5 0.0
24/04:30pm 30.1 29.3 15.0 40 9.2 WSW 13 19 7 10 1006.5 1006.5 0.0
24/04:00pm 30.6 29.3 13.8 35 10.1 WSW 13 20 7 11 1006.7 1006.7 0.0
24/03:30pm 32.2 30.7 14.3 33 10.9 W 15 22 8 12 1006.9 1006.9 0.0
24/03:00pm 31.3 30.1 14.0 35 10.5 W 13 19 7 10 1007.1 1007.1 0.0
24/02:30pm 33.4 32.8 14.5 32 11.6 NW 11 17 6 9 1007.0 1007.0 0.0
24/02:00pm 33.7 32.7 14.7 32 11.7 NW 13 20 7 11 1007.1 1007.1 0.0
24/01:30pm 34.3 33.3 14.7 30 12.1 NW 13 19 7 10 1007.2 1007.2 0.0
24/01:00pm 34.8 33.1 14.7 30 12.5 NNW 17 26 9 14 1007.5 1007.5 0.0
24/12:30pm 35.3 33.9 14.6 29 12.8 N 15 22 8 12 1007.6 1007.6 0.0
24/12:00pm 35.1 35.2 15.4 30 12.4 NNW 9 15 5 8 1007.9 1007.9 0.0
24/11:30am 34.8 34.6 14.7 30 12.5 NNE 9 15 5 8 1008.1 1008.1 0.0
24/11:00am 33.5 33.6 14.5 31 11.7 E 7 13 4 7 1008.5 1008.5 0.0
24/10:30am 31.9 31.1 14.1 34 10.8 NE 11 20 6 11 1009.0 1009.0 0.0
24/10:00am 31.1 30.2 13.8 34 10.4 NE 11 20 6 11 1009.2 1009.2 0.0
24/09:30am 28.7 27.3 13.4 39 9.1 E 13 20 7 11 1009.5 1009.5 0.0
24/09:00am 27.4 25.6 13.4 42 8.3 E 15 22 8 12 1009.9 1009.9 0.0
24/08:30am 25.4 23.1 12.9 45 7.3 E 17 24 9 13 1009.9 1009.9 0.0

Other Formats:

Comma delimited format used in spreadsheet applications
http://www.bom.gov.au/fwo/IDW60801/IDW60801.94604.axf

JavaScript Object Notation format (JSON) in row-major order
http://www.bom.gov.au/fwo/IDW60801/IDW60801.94604.json